Terminal Aerodrome Forecast
Issued by NWS

Home | Current Version | Previous Version | Text Only | Print | Product List | Glossary Off
Versions: 1 2 3 4 5 6 7 8 9 10 11 12 13 14 15

000
FTUS43 KICT 182300
TAFRSL
TAF
KRSL 182331Z 1900/1924 09008KT P6SM BKN200
     FM190400 21005KT P6SM SCT250
     FM191900 17014KT P6SM SCT250=

USA.gov is the U.S. government's official web portal to all federal, state and local government web resources and services.